sensor_id;sensor_type;location;lat;lon;timestamp;temperature;humidity
43520;DHT22;46848;51.980;5.918;2023-08-31T00:01:29;15.40;71.40
43520;DHT22;46848;51.980;5.918;2023-08-31T00:03:55;15.40;71.60
43520;DHT22;46848;51.980;5.918;2023-08-31T00:06:21;15.40;71.80
43520;DHT22;46848;51.980;5.918;2023-08-31T00:08:47;15.40;72.00
43520;DHT22;46848;51.980;5.918;2023-08-31T00:11:13;15.30;72.20
43520;DHT22;46848;51.980;5.918;2023-08-31T00:13:40;15.30;72.40
43520;DHT22;46848;51.980;5.918;2023-08-31T00:16:05;15.30;72.50
43520;DHT22;46848;51.980;5.918;2023-08-31T00:18:31;15.30;72.50
43520;DHT22;46848;51.980;5.918;2023-08-31T00:20:57;15.20;72.70
43520;DHT22;46848;51.980;5.918;2023-08-31T00:23:23;15.30;73.20
43520;DHT22;46848;51.980;5.918;2023-08-31T00:25:49;15.50;73.20
43520;DHT22;46848;51.980;5.918;2023-08-31T00:28:15;15.60;73.10
43520;DHT22;46848;51.980;5.918;2023-08-31T00:30:43;15.70;73.00
43520;DHT22;46848;51.980;5.918;2023-08-31T00:33:10;15.80;72.70
43520;DHT22;46848;51.980;5.918;2023-08-31T00:35:36;15.80;72.60
43520;DHT22;46848;51.980;5.918;2023-08-31T00:38:02;15.80;72.40
43520;DHT22;46848;51.980;5.918;2023-08-31T00:40:30;15.90;72.30
43520;DHT22;46848;51.980;5.918;2023-08-31T00:42:57;15.90;72.30
43520;DHT22;46848;51.980;5.918;2023-08-31T00:45:23;15.80;72.50
43520;DHT22;46848;51.980;5.918;2023-08-31T00:47:49;15.80;72.60
43520;DHT22;46848;51.980;5.918;2023-08-31T00:50:15;15.90;72.60
43520;DHT22;46848;51.980;5.918;2023-08-31T00:52:42;15.90;72.60
43520;DHT22;46848;51.980;5.918;2023-08-31T00:55:10;16.00;72.50
43520;DHT22;46848;51.980;5.918;2023-08-31T00:57:36;15.90;72.60
43520;DHT22;46848;51.980;5.918;2023-08-31T01:00:02;16.00;72.80
43520;DHT22;46848;51.980;5.918;2023-08-31T01:02:37;16.00;72.70
43520;DHT22;46848;51.980;5.918;2023-08-31T01:05:20;16.00;72.70
43520;DHT22;46848;51.980;5.918;2023-08-31T01:07:58;16.00;72.60
43520;DHT22;46848;51.980;5.918;2023-08-31T01:13:47;16.10;72.50
43520;DHT22;46848;51.980;5.918;2023-08-31T01:16:16;16.10;72.90
43520;DHT22;46848;51.980;5.918;2023-08-31T01:18:43;16.10;72.40
43520;DHT22;46848;51.980;5.918;2023-08-31T01:21:24;16.10;72.40
43520;DHT22;46848;51.980;5.918;2023-08-31T01:23:52;16.20;72.40
43520;DHT22;46848;51.980;5.918;2023-08-31T01:26:19;16.10;72.30
43520;DHT22;46848;51.980;5.918;2023-08-31T01:28:45;16.10;72.10
43520;DHT22;46848;51.980;5.918;2023-08-31T01:31:11;16.10;72.30
43520;DHT22;46848;51.980;5.918;2023-08-31T01:33:36;16.10;72.30
43520;DHT22;46848;51.980;5.918;2023-08-31T01:36:07;16.10;72.20
43520;DHT22;46848;51.980;5.918;2023-08-31T01:38:35;16.10;72.30
43520;DHT22;46848;51.980;5.918;2023-08-31T01:41:07;16.20;72.30
43520;DHT22;46848;51.980;5.918;2023-08-31T01:43:36;16.10;72.30
43520;DHT22;46848;51.980;5.918;2023-08-31T01:46:02;16.10;72.30
43520;DHT22;46848;51.980;5.918;2023-08-31T01:48:29;16.10;72.90
43520;DHT22;46848;51.980;5.918;2023-08-31T01:50:54;16.20;72.40
43520;DHT22;46848;51.980;5.918;2023-08-31T01:53:20;16.10;72.30
43520;DHT22;46848;51.980;5.918;2023-08-31T01:55:46;16.10;72.40
43520;DHT22;46848;51.980;5.918;2023-08-31T01:58:11;16.20;72.40
43520;DHT22;46848;51.980;5.918;2023-08-31T02:00:37;16.20;72.30
43520;DHT22;46848;51.980;5.918;2023-08-31T02:03:04;16.10;72.30
43520;DHT22;46848;51.980;5.918;2023-08-31T02:05:30;16.20;72.40
43520;DHT22;46848;51.980;5.918;2023-08-31T02:07:56;16.20;73.00
43520;DHT22;46848;51.980;5.918;2023-08-31T02:10:22;16.10;72.40
43520;DHT22;46848;51.980;5.918;2023-08-31T02:12:47;16.10;72.70
43520;DHT22;46848;51.980;5.918;2023-08-31T02:15:13;16.10;72.70
43520;DHT22;46848;51.980;5.918;2023-08-31T02:17:38;16.20;72.60
43520;DHT22;46848;51.980;5.918;2023-08-31T02:20:04;16.20;72.50
43520;DHT22;46848;51.980;5.918;2023-08-31T02:22:33;16.20;72.50
43520;DHT22;46848;51.980;5.918;2023-08-31T02:24:59;16.20;72.50
43520;DHT22;46848;51.980;5.918;2023-08-31T02:27:26;16.30;72.50
43520;DHT22;46848;51.980;5.918;2023-08-31T02:29:52;16.30;72.50
43520;DHT22;46848;51.980;5.918;2023-08-31T02:32:17;16.30;72.50
43520;DHT22;46848;51.980;5.918;2023-08-31T02:34:43;16.30;72.40
43520;DHT22;46848;51.980;5.918;2023-08-31T02:37:09;16.30;72.50
43520;DHT22;46848;51.980;5.918;2023-08-31T02:39:34;16.30;72.50
43520;DHT22;46848;51.980;5.918;2023-08-31T02:42:00;16.30;72.60
43520;DHT22;46848;51.980;5.918;2023-08-31T02:44:25;16.30;72.60
43520;DHT22;46848;51.980;5.918;2023-08-31T02:46:51;16.40;72.60
43520;DHT22;46848;51.980;5.918;2023-08-31T02:49:16;16.40;72.60
43520;DHT22;46848;51.980;5.918;2023-08-31T02:51:42;16.40;72.60
43520;DHT22;46848;51.980;5.918;2023-08-31T02:54:08;16.40;72.60
43520;DHT22;46848;51.980;5.918;2023-08-31T02:56:33;16.40;72.80
43520;DHT22;46848;51.980;5.918;2023-08-31T02:58:59;16.40;72.80
43520;DHT22;46848;51.980;5.918;2023-08-31T03:01:24;16.40;72.90
43520;DHT22;46848;51.980;5.918;2023-08-31T03:03:50;16.40;73.00
43520;DHT22;46848;51.980;5.918;2023-08-31T03:06:16;16.40;73.00
43520;DHT22;46848;51.980;5.918;2023-08-31T03:08:41;16.50;72.90
43520;DHT22;46848;51.980;5.918;2023-08-31T03:11:07;16.60;72.90
43520;DHT22;46848;51.980;5.918;2023-08-31T03:13:33;16.60;72.90
43520;DHT22;46848;51.980;5.918;2023-08-31T03:15:59;16.60;72.80
43520;DHT22;46848;51.980;5.918;2023-08-31T03:18:25;16.60;72.70
43520;DHT22;46848;51.980;5.918;2023-08-31T03:20:51;16.60;72.70
43520;DHT22;46848;51.980;5.918;2023-08-31T03:23:16;16.60;72.70
43520;DHT22;46848;51.980;5.918;2023-08-31T03:25:42;16.60;72.70
43520;DHT22;46848;51.980;5.918;2023-08-31T03:28:08;16.70;72.80
43520;DHT22;46848;51.980;5.918;2023-08-31T03:30:35;16.70;72.70
43520;DHT22;46848;51.980;5.918;2023-08-31T03:33:01;16.70;72.70
43520;DHT22;46848;51.980;5.918;2023-08-31T03:35:27;16.70;72.70
43520;DHT22;46848;51.980;5.918;2023-08-31T03:37:54;16.70;73.30
43520;DHT22;46848;51.980;5.918;2023-08-31T03:40:20;16.70;72.60
43520;DHT22;46848;51.980;5.918;2023-08-31T03:42:46;16.70;72.80
43520;DHT22;46848;51.980;5.918;2023-08-31T03:45:12;16.60;72.90
43520;DHT22;46848;51.980;5.918;2023-08-31T03:47:38;16.60;72.90
43520;DHT22;46848;51.980;5.918;2023-08-31T03:50:04;16.60;72.90
43520;DHT22;46848;51.980;5.918;2023-08-31T03:52:30;16.60;72.90
43520;DHT22;46848;51.980;5.918;2023-08-31T03:54:56;16.70;72.80
43520;DHT22;46848;51.980;5.918;2023-08-31T03:57:21;16.70;72.70
43520;DHT22;46848;51.980;5.918;2023-08-31T03:59:47;16.70;72.60
43520;DHT22;46848;51.980;5.918;2023-08-31T04:02:13;16.70;72.60
43520;DHT22;46848;51.980;5.918;2023-08-31T04:04:38;16.70;72.70
43520;DHT22;46848;51.980;5.918;2023-08-31T04:07:05;16.70;72.80
43520;DHT22;46848;51.980;5.918;2023-08-31T04:09:31;16.70;72.80
43520;DHT22;46848;51.980;5.918;2023-08-31T04:11:57;16.70;72.80
43520;DHT22;46848;51.980;5.918;2023-08-31T04:14:22;16.60;72.90
43520;DHT22;46848;51.980;5.918;2023-08-31T04:16:48;16.60;73.00
43520;DHT22;46848;51.980;5.918;2023-08-31T04:19:16;16.60;73.10
43520;DHT22;46848;51.980;5.918;2023-08-31T04:21:42;16.60;73.10
43520;DHT22;46848;51.980;5.918;2023-08-31T04:24:08;16.60;73.10
43520;DHT22;46848;51.980;5.918;2023-08-31T04:26:34;16.70;73.10
43520;DHT22;46848;51.980;5.918;2023-08-31T04:28:59;16.70;73.20
43520;DHT22;46848;51.980;5.918;2023-08-31T04:31:25;16.70;73.20
43520;DHT22;46848;51.980;5.918;2023-08-31T04:33:50;16.70;73.20
43520;DHT22;46848;51.980;5.918;2023-08-31T04:36:20;16.70;73.20
43520;DHT22;46848;51.980;5.918;2023-08-31T04:38:46;16.60;73.20
43520;DHT22;46848;51.980;5.918;2023-08-31T04:41:11;16.60;73.20
43520;DHT22;46848;51.980;5.918;2023-08-31T04:43:37;16.50;73.10
43520;DHT22;46848;51.980;5.918;2023-08-31T04:46:03;16.50;73.20
43520;DHT22;46848;51.980;5.918;2023-08-31T04:48:29;16.40;73.40
43520;DHT22;46848;51.980;5.918;2023-08-31T04:50:58;16.40;73.60
43520;DHT22;46848;51.980;5.918;2023-08-31T04:53:24;16.30;73.80
43520;DHT22;46848;51.980;5.918;2023-08-31T04:55:50;16.30;73.90
43520;DHT22;46848;51.980;5.918;2023-08-31T04:58:15;16.20;74.00
43520;DHT22;46848;51.980;5.918;2023-08-31T05:00:41;16.10;74.10
43520;DHT22;46848;51.980;5.918;2023-08-31T05:03:06;16.10;74.30
43520;DHT22;46848;51.980;5.918;2023-08-31T05:05:32;16.10;74.50
43520;DHT22;46848;51.980;5.918;2023-08-31T05:07:58;16.10;74.80
43520;DHT22;46848;51.980;5.918;2023-08-31T05:10:24;16.00;74.90
43520;DHT22;46848;51.980;5.918;2023-08-31T05:12:50;16.00;74.90
43520;DHT22;46848;51.980;5.918;2023-08-31T05:15:15;16.00;75.10
43520;DHT22;46848;51.980;5.918;2023-08-31T05:17:41;16.00;75.10
43520;DHT22;46848;51.980;5.918;2023-08-31T05:20:08;16.00;75.40
43520;DHT22;46848;51.980;5.918;2023-08-31T05:22:35;15.90;75.50
43520;DHT22;46848;51.980;5.918;2023-08-31T05:25:01;15.90;75.70
43520;DHT22;46848;51.980;5.918;2023-08-31T05:27:26;16.00;75.90
43520;DHT22;46848;51.980;5.918;2023-08-31T05:29:52;15.90;75.80
43520;DHT22;46848;51.980;5.918;2023-08-31T05:32:17;15.90;75.90
43520;DHT22;46848;51.980;5.918;2023-08-31T05:34:43;15.90;76.00
43520;DHT22;46848;51.980;5.918;2023-08-31T05:37:09;15.90;76.10
43520;DHT22;46848;51.980;5.918;2023-08-31T05:39:34;15.90;76.00
43520;DHT22;46848;51.980;5.918;2023-08-31T05:42:00;15.90;76.30
43520;DHT22;46848;51.980;5.918;2023-08-31T05:44:26;15.90;76.40
43520;DHT22;46848;51.980;5.918;2023-08-31T05:46:52;15.80;76.50
43520;DHT22;46848;51.980;5.918;2023-08-31T05:49:18;15.80;76.70
43520;DHT22;46848;51.980;5.918;2023-08-31T05:51:43;15.80;76.90
43520;DHT22;46848;51.980;5.918;2023-08-31T05:54:09;15.80;76.90
43520;DHT22;46848;51.980;5.918;2023-08-31T05:56:38;15.80;76.90
43520;DHT22;46848;51.980;5.918;2023-08-31T05:59:08;15.80;76.70
43520;DHT22;46848;51.980;5.918;2023-08-31T06:01:35;15.80;76.60
43520;DHT22;46848;51.980;5.918;2023-08-31T06:04:01;15.70;76.60
43520;DHT22;46848;51.980;5.918;2023-08-31T06:06:28;15.80;76.50
43520;DHT22;46848;51.980;5.918;2023-08-31T06:08:54;15.70;76.20
43520;DHT22;46848;51.980;5.918;2023-08-31T06:11:20;15.80;76.50
43520;DHT22;46848;51.980;5.918;2023-08-31T06:13:46;15.80;76.60
43520;DHT22;46848;51.980;5.918;2023-08-31T06:16:12;15.80;76.70
43520;DHT22;46848;51.980;5.918;2023-08-31T06:18:37;15.80;76.40
43520;DHT22;46848;51.980;5.918;2023-08-31T06:21:03;15.80;76.40
43520;DHT22;46848;51.980;5.918;2023-08-31T06:23:29;15.90;76.40
43520;DHT22;46848;51.980;5.918;2023-08-31T06:25:54;15.90;76.50
43520;DHT22;46848;51.980;5.918;2023-08-31T06:28:20;15.90;76.50
43520;DHT22;46848;51.980;5.918;2023-08-31T06:30:45;16.00;76.60
43520;DHT22;46848;51.980;5.918;2023-08-31T06:33:15;16.00;76.70
43520;DHT22;46848;51.980;5.918;2023-08-31T06:35:40;16.00;76.90
43520;DHT22;46848;51.980;5.918;2023-08-31T06:38:06;16.10;76.80
43520;DHT22;46848;51.980;5.918;2023-08-31T06:40:32;16.40;76.50
43520;DHT22;46848;51.980;5.918;2023-08-31T06:42:58;16.50;76.00
43520;DHT22;46848;51.980;5.918;2023-08-31T06:45:24;16.70;75.80
43520;DHT22;46848;51.980;5.918;2023-08-31T06:47:49;16.90;75.70
43520;DHT22;46848;51.980;5.918;2023-08-31T06:50:15;17.20;75.60
43520;DHT22;46848;51.980;5.918;2023-08-31T06:52:41;17.30;75.10
43520;DHT22;46848;51.980;5.918;2023-08-31T06:55:07;17.30;74.80
43520;DHT22;46848;51.980;5.918;2023-08-31T06:57:33;17.20;74.70
43520;DHT22;46848;51.980;5.918;2023-08-31T06:59:59;17.20;74.60
43520;DHT22;46848;51.980;5.918;2023-08-31T07:02:27;17.10;74.60
43520;DHT22;46848;51.980;5.918;2023-08-31T07:04:53;17.00;74.60
43520;DHT22;46848;51.980;5.918;2023-08-31T07:07:19;17.00;74.60
43520;DHT22;46848;51.980;5.918;2023-08-31T07:09:46;17.00;74.60
43520;DHT22;46848;51.980;5.918;2023-08-31T07:12:13;16.90;74.80
43520;DHT22;46848;51.980;5.918;2023-08-31T07:14:39;16.80;74.90
43520;DHT22;46848;51.980;5.918;2023-08-31T07:17:05;16.90;75.00
43520;DHT22;46848;51.980;5.918;2023-08-31T07:19:30;16.90;75.20
43520;DHT22;46848;51.980;5.918;2023-08-31T07:21:56;17.00;75.60
43520;DHT22;46848;51.980;5.918;2023-08-31T07:24:22;16.90;75.50
43520;DHT22;46848;51.980;5.918;2023-08-31T07:26:48;16.90;75.60
43520;DHT22;46848;51.980;5.918;2023-08-31T07:29:14;16.90;75.50
43520;DHT22;46848;51.980;5.918;2023-08-31T07:31:40;17.00;75.50
43520;DHT22;46848;51.980;5.918;2023-08-31T07:34:05;16.90;75.40
43520;DHT22;46848;51.980;5.918;2023-08-31T07:36:31;16.90;75.30
43520;DHT22;46848;51.980;5.918;2023-08-31T07:38:56;16.80;75.30
43520;DHT22;46848;51.980;5.918;2023-08-31T07:41:23;16.90;75.50
43520;DHT22;46848;51.980;5.918;2023-08-31T07:43:48;16.90;75.50
43520;DHT22;46848;51.980;5.918;2023-08-31T07:46:15;16.80;75.50
43520;DHT22;46848;51.980;5.918;2023-08-31T07:48:42;16.90;75.60
43520;DHT22;46848;51.980;5.918;2023-08-31T07:51:07;17.00;76.00
43520;DHT22;46848;51.980;5.918;2023-08-31T07:53:33;17.20;75.80
43520;DHT22;46848;51.980;5.918;2023-08-31T07:55:59;17.20;75.40
43520;DHT22;46848;51.980;5.918;2023-08-31T07:58:24;17.30;75.10
43520;DHT22;46848;51.980;5.918;2023-08-31T08:00:55;17.30;75.10
43520;DHT22;46848;51.980;5.918;2023-08-31T08:03:22;17.30;75.00
43520;DHT22;46848;51.980;5.918;2023-08-31T08:05:48;17.30;75.00
43520;DHT22;46848;51.980;5.918;2023-08-31T08:08:14;17.40;75.00
43520;DHT22;46848;51.980;5.918;2023-08-31T08:10:40;17.30;74.60
43520;DHT22;46848;51.980;5.918;2023-08-31T08:13:05;17.30;74.60
43520;DHT22;46848;51.980;5.918;2023-08-31T08:15:31;17.20;74.80
43520;DHT22;46848;51.980;5.918;2023-08-31T08:17:57;17.20;74.80
43520;DHT22;46848;51.980;5.918;2023-08-31T08:20:23;17.20;74.70
43520;DHT22;46848;51.980;5.918;2023-08-31T08:22:49;17.20;74.40
43520;DHT22;46848;51.980;5.918;2023-08-31T08:25:21;17.20;74.30
43520;DHT22;46848;51.980;5.918;2023-08-31T08:27:47;17.20;74.50
43520;DHT22;46848;51.980;5.918;2023-08-31T08:30:13;17.10;74.40
43520;DHT22;46848;51.980;5.918;2023-08-31T08:32:39;17.20;74.90
43520;DHT22;46848;51.980;5.918;2023-08-31T08:35:05;17.40;75.30
43520;DHT22;46848;51.980;5.918;2023-08-31T08:37:31;17.60;75.30
43520;DHT22;46848;51.980;5.918;2023-08-31T08:40:00;17.90;75.00
43520;DHT22;46848;51.980;5.918;2023-08-31T08:42:29;18.20;75.50
43520;DHT22;46848;51.980;5.918;2023-08-31T08:44:57;18.50;74.40
43520;DHT22;46848;51.980;5.918;2023-08-31T08:47:24;18.60;73.80
43520;DHT22;46848;51.980;5.918;2023-08-31T08:49:54;18.60;73.50
43520;DHT22;46848;51.980;5.918;2023-08-31T08:52:22;18.70;73.20
43520;DHT22;46848;51.980;5.918;2023-08-31T08:54:49;18.80;73.00
43520;DHT22;46848;51.980;5.918;2023-08-31T08:57:15;18.90;72.70
43520;DHT22;46848;51.980;5.918;2023-08-31T08:59:40;18.90;72.80
43520;DHT22;46848;51.980;5.918;2023-08-31T09:02:11;18.90;72.40
43520;DHT22;46848;51.980;5.918;2023-08-31T09:04:37;19.00;72.30
43520;DHT22;46848;51.980;5.918;2023-08-31T09:07:03;19.10;72.30
43520;DHT22;46848;51.980;5.918;2023-08-31T09:09:29;19.20;72.60
43520;DHT22;46848;51.980;5.918;2023-08-31T09:11:55;19.30;72.30
43520;DHT22;46848;51.980;5.918;2023-08-31T09:14:23;19.50;72.20
43520;DHT22;46848;51.980;5.918;2023-08-31T09:16:51;19.60;71.80
43520;DHT22;46848;51.980;5.918;2023-08-31T09:19:24;19.60;71.10
43520;DHT22;46848;51.980;5.918;2023-08-31T09:21:51;19.80;71.30
43520;DHT22;46848;51.980;5.918;2023-08-31T09:24:17;20.00;72.00
43520;DHT22;46848;51.980;5.918;2023-08-31T09:26:55;20.40;71.70
43520;DHT22;46848;51.980;5.918;2023-08-31T09:29:21;20.70;71.00
43520;DHT22;46848;51.980;5.918;2023-08-31T09:31:47;20.90;69.80
43520;DHT22;46848;51.980;5.918;2023-08-31T09:34:14;21.30;69.50
43520;DHT22;46848;51.980;5.918;2023-08-31T09:36:41;21.60;68.80
43520;DHT22;46848;51.980;5.918;2023-08-31T09:39:08;21.80;67.70
43520;DHT22;46848;51.980;5.918;2023-08-31T09:41:34;21.90;67.40
43520;DHT22;46848;51.980;5.918;2023-08-31T09:44:18;22.20;67.30
43520;DHT22;46848;51.980;5.918;2023-08-31T09:46:44;22.50;66.80
43520;DHT22;46848;51.980;5.918;2023-08-31T09:49:14;22.70;66.40
43520;DHT22;46848;51.980;5.918;2023-08-31T09:51:44;22.90;66.10
43520;DHT22;46848;51.980;5.918;2023-08-31T09:54:13;23.20;65.10
43520;DHT22;46848;51.980;5.918;2023-08-31T09:56:44;23.40;64.10
43520;DHT22;46848;51.980;5.918;2023-08-31T09:59:12;23.50;63.40
43520;DHT22;46848;51.980;5.918;2023-08-31T10:01:42;23.50;63.30
43520;DHT22;46848;51.980;5.918;2023-08-31T10:04:08;23.50;62.70
43520;DHT22;46848;51.980;5.918;2023-08-31T10:06:39;23.60;62.70
43520;DHT22;46848;51.980;5.918;2023-08-31T10:09:05;23.60;61.90
43520;DHT22;46848;51.980;5.918;2023-08-31T10:11:31;23.50;62.00
43520;DHT22;46848;51.980;5.918;2023-08-31T10:13:58;23.30;62.30
43520;DHT22;46848;51.980;5.918;2023-08-31T10:16:27;23.20;62.80
43520;DHT22;46848;51.980;5.918;2023-08-31T10:18:55;23.10;63.10
43520;DHT22;46848;51.980;5.918;2023-08-31T10:21:21;23.00;63.30
43520;DHT22;46848;51.980;5.918;2023-08-31T10:23:51;22.90;63.70
43520;DHT22;46848;51.980;5.918;2023-08-31T10:26:30;22.80;63.90
43520;DHT22;46848;51.980;5.918;2023-08-31T10:28:58;22.70;64.20
43520;DHT22;46848;51.980;5.918;2023-08-31T10:31:27;22.60;64.50
43520;DHT22;46848;51.980;5.918;2023-08-31T10:33:58;22.50;64.80
43520;DHT22;46848;51.980;5.918;2023-08-31T10:36:38;22.40;64.80
43520;DHT22;46848;51.980;5.918;2023-08-31T10:39:18;22.30;65.00
43520;DHT22;46848;51.980;5.918;2023-08-31T10:41:56;22.30;65.40
43520;DHT22;46848;51.980;5.918;2023-08-31T10:44:22;22.40;64.80
43520;DHT22;46848;51.980;5.918;2023-08-31T10:46:49;22.50;64.80
43520;DHT22;46848;51.980;5.918;2023-08-31T10:49:18;22.70;64.60
43520;DHT22;46848;51.980;5.918;2023-08-31T10:51:46;22.90;64.10
43520;DHT22;46848;51.980;5.918;2023-08-31T10:54:31;23.10;63.40
43520;DHT22;46848;51.980;5.918;2023-08-31T10:59:27;23.30;61.60
43520;DHT22;46848;51.980;5.918;2023-08-31T11:02:06;23.40;60.50
43520;DHT22;46848;51.980;5.918;2023-08-31T11:04:52;23.50;60.00
43520;DHT22;46848;51.980;5.918;2023-08-31T11:07:19;23.60;58.40
43520;DHT22;46848;51.980;5.918;2023-08-31T11:09:48;23.70;58.70
43520;DHT22;46848;51.980;5.918;2023-08-31T11:12:14;23.80;58.10
43520;DHT22;46848;51.980;5.918;2023-08-31T11:14:40;24.00;57.80
43520;DHT22;46848;51.980;5.918;2023-08-31T11:17:06;24.10;57.50
43520;DHT22;46848;51.980;5.918;2023-08-31T11:19:32;24.20;57.50
43520;DHT22;46848;51.980;5.918;2023-08-31T11:22:02;24.30;56.60
43520;DHT22;46848;51.980;5.918;2023-08-31T11:24:32;24.40;56.20
43520;DHT22;46848;51.980;5.918;2023-08-31T11:26:58;24.50;56.30
43520;DHT22;46848;51.980;5.918;2023-08-31T11:29:24;24.40;55.30
43520;DHT22;46848;51.980;5.918;2023-08-31T11:31:50;24.40;55.50
43520;DHT22;46848;51.980;5.918;2023-08-31T11:34:17;24.40;55.50
43520;DHT22;46848;51.980;5.918;2023-08-31T11:36:44;24.50;55.60
43520;DHT22;46848;51.980;5.918;2023-08-31T11:39:10;24.50;55.20
43520;DHT22;46848;51.980;5.918;2023-08-31T11:41:36;24.60;55.40
43520;DHT22;46848;51.980;5.918;2023-08-31T11:44:13;24.60;55.10
43520;DHT22;46848;51.980;5.918;2023-08-31T11:46:42;24.70;54.30
43520;DHT22;46848;51.980;5.918;2023-08-31T11:49:09;24.70;53.70
43520;DHT22;46848;51.980;5.918;2023-08-31T11:51:34;24.70;52.90
43520;DHT22;46848;51.980;5.918;2023-08-31T11:54:01;24.80;52.20
43520;DHT22;46848;51.980;5.918;2023-08-31T11:56:41;25.00;51.90
43520;DHT22;46848;51.980;5.918;2023-08-31T11:59:11;25.10;51.30
43520;DHT22;46848;51.980;5.918;2023-08-31T12:01:45;25.10;51.00
43520;DHT22;46848;51.980;5.918;2023-08-31T12:04:20;25.20;50.70
43520;DHT22;46848;51.980;5.918;2023-08-31T12:06:50;25.20;50.20
43520;DHT22;46848;51.980;5.918;2023-08-31T12:09:16;25.30;50.30
43520;DHT22;46848;51.980;5.918;2023-08-31T12:11:42;25.40;50.00
43520;DHT22;46848;51.980;5.918;2023-08-31T12:14:22;25.40;48.90
43520;DHT22;46848;51.980;5.918;2023-08-31T12:16:48;25.40;47.80
43520;DHT22;46848;51.980;5.918;2023-08-31T12:19:15;25.40;49.30
43520;DHT22;46848;51.980;5.918;2023-08-31T12:21:43;25.30;48.60
43520;DHT22;46848;51.980;5.918;2023-08-31T12:24:09;25.30;48.80
43520;DHT22;46848;51.980;5.918;2023-08-31T12:26:35;25.30;48.00
43520;DHT22;46848;51.980;5.918;2023-08-31T12:29:01;25.40;48.40
43520;DHT22;46848;51.980;5.918;2023-08-31T12:31:28;25.40;47.90
43520;DHT22;46848;51.980;5.918;2023-08-31T12:33:53;25.50;47.80
43520;DHT22;46848;51.980;5.918;2023-08-31T12:36:19;25.60;47.90
43520;DHT22;46848;51.980;5.918;2023-08-31T12:38:45;25.70;47.60
43520;DHT22;46848;51.980;5.918;2023-08-31T12:41:11;25.70;46.80
43520;DHT22;46848;51.980;5.918;2023-08-31T12:43:37;25.80;47.10
43520;DHT22;46848;51.980;5.918;2023-08-31T12:46:02;25.90;46.70
43520;DHT22;46848;51.980;5.918;2023-08-31T12:48:31;25.90;47.10
43520;DHT22;46848;51.980;5.918;2023-08-31T12:50:57;25.90;47.80
43520;DHT22;46848;51.980;5.918;2023-08-31T12:53:23;25.80;46.90
43520;DHT22;46848;51.980;5.918;2023-08-31T12:55:49;25.80;46.90
43520;DHT22;46848;51.980;5.918;2023-08-31T12:58:15;25.90;46.90
43520;DHT22;46848;51.980;5.918;2023-08-31T13:00:41;25.90;46.60
43520;DHT22;46848;51.980;5.918;2023-08-31T13:03:08;25.90;46.70
43520;DHT22;46848;51.980;5.918;2023-08-31T13:05:34;25.80;46.40
43520;DHT22;46848;51.980;5.918;2023-08-31T13:08:00;25.90;46.20
43520;DHT22;46848;51.980;5.918;2023-08-31T13:10:26;25.90;46.20
43520;DHT22;46848;51.980;5.918;2023-08-31T13:12:52;25.90;46.30
43520;DHT22;46848;51.980;5.918;2023-08-31T13:15:17;25.90;45.90
43520;DHT22;46848;51.980;5.918;2023-08-31T13:17:43;25.80;46.10
43520;DHT22;46848;51.980;5.918;2023-08-31T13:20:09;25.80;46.20
43520;DHT22;46848;51.980;5.918;2023-08-31T13:22:34;25.80;46.10
43520;DHT22;46848;51.980;5.918;2023-08-31T13:25:00;25.70;45.80
43520;DHT22;46848;51.980;5.918;2023-08-31T13:27:26;25.60;46.20
43520;DHT22;46848;51.980;5.918;2023-08-31T13:29:51;25.40;45.70
43520;DHT22;46848;51.980;5.918;2023-08-31T13:32:17;25.20;45.90
43520;DHT22;46848;51.980;5.918;2023-08-31T13:34:42;25.20;46.60
43520;DHT22;46848;51.980;5.918;2023-08-31T13:37:08;25.20;45.70
43520;DHT22;46848;51.980;5.918;2023-08-31T13:39:34;25.20;45.10
43520;DHT22;46848;51.980;5.918;2023-08-31T13:42:01;25.20;45.30
43520;DHT22;46848;51.980;5.918;2023-08-31T13:44:29;25.30;45.60
43520;DHT22;46848;51.980;5.918;2023-08-31T13:46:54;25.30;45.20
43520;DHT22;46848;51.980;5.918;2023-08-31T13:49:20;25.30;45.20
43520;DHT22;46848;51.980;5.918;2023-08-31T13:51:45;25.30;45.10
43520;DHT22;46848;51.980;5.918;2023-08-31T13:54:11;25.30;45.10
43520;DHT22;46848;51.980;5.918;2023-08-31T13:56:37;25.40;45.80
43520;DHT22;46848;51.980;5.918;2023-08-31T13:59:02;25.40;45.60
43520;DHT22;46848;51.980;5.918;2023-08-31T14:01:28;25.50;45.60
43520;DHT22;46848;51.980;5.918;2023-08-31T14:03:54;25.60;45.60
43520;DHT22;46848;51.980;5.918;2023-08-31T14:06:19;25.70;45.60
43520;DHT22;46848;51.980;5.918;2023-08-31T14:08:45;25.70;45.80
43520;DHT22;46848;51.980;5.918;2023-08-31T14:11:10;25.70;45.40
43520;DHT22;46848;51.980;5.918;2023-08-31T14:13:36;25.70;45.10
43520;DHT22;46848;51.980;5.918;2023-08-31T14:16:02;25.60;45.40
43520;DHT22;46848;51.980;5.918;2023-08-31T14:18:28;25.60;45.60
43520;DHT22;46848;51.980;5.918;2023-08-31T14:20:56;25.50;45.30
43520;DHT22;46848;51.980;5.918;2023-08-31T14:23:22;25.40;45.60
43520;DHT22;46848;51.980;5.918;2023-08-31T14:25:47;25.40;45.90
43520;DHT22;46848;51.980;5.918;2023-08-31T14:28:13;25.40;46.00
43520;DHT22;46848;51.980;5.918;2023-08-31T14:30:38;25.40;45.80
43520;DHT22;46848;51.980;5.918;2023-08-31T14:33:04;25.40;46.00
43520;DHT22;46848;51.980;5.918;2023-08-31T14:35:30;25.30;46.00
43520;DHT22;46848;51.980;5.918;2023-08-31T14:37:56;25.30;46.20
43520;DHT22;46848;51.980;5.918;2023-08-31T14:40:23;25.30;46.10
43520;DHT22;46848;51.980;5.918;2023-08-31T14:42:49;25.30;46.10
43520;DHT22;46848;51.980;5.918;2023-08-31T14:45:14;25.30;46.10
43520;DHT22;46848;51.980;5.918;2023-08-31T14:47:40;25.10;46.00
43520;DHT22;46848;51.980;5.918;2023-08-31T14:50:07;25.10;46.10
43520;DHT22;46848;51.980;5.918;2023-08-31T14:52:32;24.90;47.00
43520;DHT22;46848;51.980;5.918;2023-08-31T14:54:59;24.80;46.30
43520;DHT22;46848;51.980;5.918;2023-08-31T14:57:24;24.80;46.50
43520;DHT22;46848;51.980;5.918;2023-08-31T14:59:50;24.70;46.70
43520;DHT22;46848;51.980;5.918;2023-08-31T15:02:19;24.60;46.80
43520;DHT22;46848;51.980;5.918;2023-08-31T15:04:47;24.50;47.20
43520;DHT22;46848;51.980;5.918;2023-08-31T15:07:15;24.40;47.30
43520;DHT22;46848;51.980;5.918;2023-08-31T15:09:41;24.50;47.20
43520;DHT22;46848;51.980;5.918;2023-08-31T15:12:07;24.50;47.30
43520;DHT22;46848;51.980;5.918;2023-08-31T15:14:33;24.50;47.40
43520;DHT22;46848;51.980;5.918;2023-08-31T15:16:59;24.50;47.60
43520;DHT22;46848;51.980;5.918;2023-08-31T15:19:24;24.40;47.60
43520;DHT22;46848;51.980;5.918;2023-08-31T15:21:50;24.30;47.90
43520;DHT22;46848;51.980;5.918;2023-08-31T15:24:15;24.30;48.00
43520;DHT22;46848;51.980;5.918;2023-08-31T15:26:41;24.30;48.40
43520;DHT22;46848;51.980;5.918;2023-08-31T15:29:09;24.20;48.40
43520;DHT22;46848;51.980;5.918;2023-08-31T15:31:34;24.10;48.30
43520;DHT22;46848;51.980;5.918;2023-08-31T15:34:00;24.10;48.30